sensor_id;sensor_type;location;lat;lon;timestamp;P1;durP1;ratioP1;P2;durP2;ratioP2
1829;SDS011;914;48.118;11.600;2023-08-30T00:01:23;7.07;;;6.10;;
1829;SDS011;914;48.118;11.600;2023-08-30T00:03:48;7.37;;;6.50;;
1829;SDS011;914;48.118;11.600;2023-08-30T00:06:14;6.93;;;5.97;;
1829;SDS011;914;48.118;11.600;2023-08-30T00:08:40;7.93;;;6.53;;
1829;SDS011;914;48.118;11.600;2023-08-30T00:11:06;7.30;;;5.90;;
1829;SDS011;914;48.118;11.600;2023-08-30T00:13:32;7.73;;;6.87;;
1829;SDS011;914;48.118;11.600;2023-08-30T00:15:58;7.80;;;6.87;;
1829;SDS011;914;48.118;11.600;2023-08-30T00:18:24;7.43;;;6.70;;
1829;SDS011;914;48.118;11.600;2023-08-30T00:20:49;8.10;;;6.50;;
1829;SDS011;914;48.118;11.600;2023-08-30T00:23:15;7.97;;;6.83;;
1829;SDS011;914;48.118;11.600;2023-08-30T00:25:41;6.90;;;5.93;;
1829;SDS011;914;48.118;11.600;2023-08-30T00:28:07;7.20;;;6.50;;
1829;SDS011;914;48.118;11.600;2023-08-30T00:30:33;6.90;;;6.20;;
1829;SDS011;914;48.118;11.600;2023-08-30T00:32:58;6.77;;;6.00;;
1829;SDS011;914;48.118;11.600;2023-08-30T00:35:24;7.73;;;6.87;;
1829;SDS011;914;48.118;11.600;2023-08-30T00:37:49;6.93;;;6.23;;
1829;SDS011;914;48.118;11.600;2023-08-30T00:40:15;7.60;;;6.43;;
1829;SDS011;914;48.118;11.600;2023-08-30T00:42:41;6.27;;;5.67;;
1829;SDS011;914;48.118;11.600;2023-08-30T00:45:07;7.20;;;6.03;;
1829;SDS011;914;48.118;11.600;2023-08-30T00:47:33;7.17;;;6.47;;
1829;SDS011;914;48.118;11.600;2023-08-30T00:50:00;8.20;;;6.67;;
1829;SDS011;914;48.118;11.600;2023-08-30T00:52:26;8.40;;;6.67;;
1829;SDS011;914;48.118;11.600;2023-08-30T00:54:51;6.60;;;5.90;;
1829;SDS011;914;48.118;11.600;2023-08-30T00:57:17;6.70;;;6.00;;
1829;SDS011;914;48.118;11.600;2023-08-30T00:59:43;6.97;;;6.27;;
1829;SDS011;914;48.118;11.600;2023-08-30T01:02:08;8.43;;;6.97;;
1829;SDS011;914;48.118;11.600;2023-08-30T01:04:34;10.80;;;6.57;;
1829;SDS011;914;48.118;11.600;2023-08-30T01:07:00;6.83;;;5.83;;
1829;SDS011;914;48.118;11.600;2023-08-30T01:09:25;7.70;;;6.47;;
1829;SDS011;914;48.118;11.600;2023-08-30T01:11:57;6.67;;;5.97;;
1829;SDS011;914;48.118;11.600;2023-08-30T01:14:54;5.97;;;5.37;;
1829;SDS011;914;48.118;11.600;2023-08-30T01:17:21;5.73;;;5.17;;
1829;SDS011;914;48.118;11.600;2023-08-30T01:25:38;6.33;;;5.73;;
1829;SDS011;914;48.118;11.600;2023-08-30T01:28:22;6.07;;;5.23;;
1829;SDS011;914;48.118;11.600;2023-08-30T01:30:51;5.83;;;5.27;;
1829;SDS011;914;48.118;11.600;2023-08-30T01:33:22;5.60;;;5.10;;
1829;SDS011;914;48.118;11.600;2023-08-30T01:35:49;6.13;;;5.30;;
1829;SDS011;914;48.118;11.600;2023-08-30T01:38:15;6.07;;;5.47;;
1829;SDS011;914;48.118;11.600;2023-08-30T01:40:42;6.10;;;5.50;;
1829;SDS011;914;48.118;11.600;2023-08-30T01:43:10;6.53;;;5.20;;
1829;SDS011;914;48.118;11.600;2023-08-30T01:45:40;6.23;;;5.40;;
1829;SDS011;914;48.118;11.600;2023-08-30T01:48:10;6.67;;;5.50;;
1829;SDS011;914;48.118;11.600;2023-08-30T01:50:38;6.73;;;5.20;;
1829;SDS011;914;48.118;11.600;2023-08-30T01:53:05;5.87;;;5.27;;
1829;SDS011;914;48.118;11.600;2023-08-30T01:55:32;5.97;;;4.93;;
1829;SDS011;914;48.118;11.600;2023-08-30T01:58:00;6.03;;;5.43;;
1829;SDS011;914;48.118;11.600;2023-08-30T02:00:25;7.27;;;5.77;;
1829;SDS011;914;48.118;11.600;2023-08-30T02:02:51;5.77;;;5.07;;
1829;SDS011;914;48.118;11.600;2023-08-30T02:05:17;5.43;;;4.93;;
1829;SDS011;914;48.118;11.600;2023-08-30T02:07:57;5.43;;;4.93;;
1829;SDS011;914;48.118;11.600;2023-08-30T02:10:28;5.13;;;4.60;;
1829;SDS011;914;48.118;11.600;2023-08-30T02:12:59;6.63;;;5.40;;
1829;SDS011;914;48.118;11.600;2023-08-30T02:15:27;6.00;;;5.27;;
1829;SDS011;914;48.118;11.600;2023-08-30T02:17:55;6.57;;;5.80;;
1829;SDS011;914;48.118;11.600;2023-08-30T02:20:21;5.83;;;5.23;;
1829;SDS011;914;48.118;11.600;2023-08-30T02:22:47;5.60;;;4.67;;
1829;SDS011;914;48.118;11.600;2023-08-30T02:25:13;5.87;;;5.27;;
1829;SDS011;914;48.118;11.600;2023-08-30T02:27:38;5.57;;;5.00;;
1829;SDS011;914;48.118;11.600;2023-08-30T02:30:04;5.80;;;4.93;;
1829;SDS011;914;48.118;11.600;2023-08-30T02:32:30;4.83;;;4.13;;
1829;SDS011;914;48.118;11.600;2023-08-30T02:34:56;6.23;;;4.83;;
1829;SDS011;914;48.118;11.600;2023-08-30T02:37:22;5.60;;;5.10;;
1829;SDS011;914;48.118;11.600;2023-08-30T02:39:47;6.43;;;4.53;;
1829;SDS011;914;48.118;11.600;2023-08-30T02:42:13;5.77;;;4.87;;
1829;SDS011;914;48.118;11.600;2023-08-30T02:44:39;5.57;;;5.07;;
1829;SDS011;914;48.118;11.600;2023-08-30T02:47:05;5.43;;;4.70;;
1829;SDS011;914;48.118;11.600;2023-08-30T02:49:30;5.03;;;4.53;;
1829;SDS011;914;48.118;11.600;2023-08-30T02:51:56;5.43;;;4.77;;
1829;SDS011;914;48.118;11.600;2023-08-30T02:54:22;7.27;;;4.57;;
1829;SDS011;914;48.118;11.600;2023-08-30T02:56:47;5.00;;;4.37;;
1829;SDS011;914;48.118;11.600;2023-08-30T02:59:13;5.30;;;4.47;;
1829;SDS011;914;48.118;11.600;2023-08-30T03:01:39;6.73;;;4.50;;
1829;SDS011;914;48.118;11.600;2023-08-30T03:04:05;4.43;;;4.00;;
1829;SDS011;914;48.118;11.600;2023-08-30T03:06:34;5.70;;;4.60;;
1829;SDS011;914;48.118;11.600;2023-08-30T03:09:00;4.33;;;3.93;;
1829;SDS011;914;48.118;11.600;2023-08-30T03:11:27;4.30;;;3.90;;
1829;SDS011;914;48.118;11.600;2023-08-30T03:13:53;4.30;;;3.90;;
1829;SDS011;914;48.118;11.600;2023-08-30T03:16:19;4.57;;;4.13;;
1829;SDS011;914;48.118;11.600;2023-08-30T03:18:45;4.47;;;4.07;;
1829;SDS011;914;48.118;11.600;2023-08-30T03:21:12;4.13;;;3.77;;
1829;SDS011;914;48.118;11.600;2023-08-30T03:23:38;5.87;;;4.57;;
1829;SDS011;914;48.118;11.600;2023-08-30T03:26:15;4.00;;;3.63;;
1829;SDS011;914;48.118;11.600;2023-08-30T03:28:42;5.00;;;4.50;;
1829;SDS011;914;48.118;11.600;2023-08-30T03:33:40;4.30;;;3.90;;
1829;SDS011;914;48.118;11.600;2023-08-30T03:36:11;4.30;;;3.90;;
1829;SDS011;914;48.118;11.600;2023-08-30T03:38:37;4.63;;;4.13;;
1829;SDS011;914;48.118;11.600;2023-08-30T03:41:03;4.80;;;4.00;;
1829;SDS011;914;48.118;11.600;2023-08-30T03:43:32;4.57;;;4.17;;
1829;SDS011;914;48.118;11.600;2023-08-30T03:45:59;4.17;;;3.73;;
1829;SDS011;914;48.118;11.600;2023-08-30T03:48:26;4.80;;;3.93;;
1829;SDS011;914;48.118;11.600;2023-08-30T03:50:52;4.57;;;3.70;;
1829;SDS011;914;48.118;11.600;2023-08-30T03:53:19;4.33;;;3.93;;
1829;SDS011;914;48.118;11.600;2023-08-30T03:55:44;4.50;;;4.10;;
1829;SDS011;914;48.118;11.600;2023-08-30T03:58:10;4.27;;;3.87;;
1829;SDS011;914;48.118;11.600;2023-08-30T04:00:36;4.33;;;3.87;;
1829;SDS011;914;48.118;11.600;2023-08-30T04:03:02;4.40;;;4.00;;
1829;SDS011;914;48.118;11.600;2023-08-30T04:05:32;5.03;;;4.53;;
1829;SDS011;914;48.118;11.600;2023-08-30T04:07:59;3.93;;;3.57;;
1829;SDS011;914;48.118;11.600;2023-08-30T04:10:25;4.63;;;3.93;;
1829;SDS011;914;48.118;11.600;2023-08-30T04:12:50;5.33;;;4.20;;
1829;SDS011;914;48.118;11.600;2023-08-30T04:15:16;3.97;;;3.57;;
1829;SDS011;914;48.118;11.600;2023-08-30T04:17:42;4.60;;;3.87;;
1829;SDS011;914;48.118;11.600;2023-08-30T04:20:07;4.50;;;4.10;;
1829;SDS011;914;48.118;11.600;2023-08-30T04:22:35;4.30;;;3.90;;
1829;SDS011;914;48.118;11.600;2023-08-30T04:25:01;4.20;;;3.80;;
1829;SDS011;914;48.118;11.600;2023-08-30T04:27:28;4.63;;;4.13;;
1829;SDS011;914;48.118;11.600;2023-08-30T04:29:54;4.33;;;3.63;;
1829;SDS011;914;48.118;11.600;2023-08-30T04:32:20;4.33;;;3.93;;
1829;SDS011;914;48.118;11.600;2023-08-30T04:34:45;4.97;;;4.43;;
1829;SDS011;914;48.118;11.600;2023-08-30T04:37:11;3.97;;;3.60;;
1829;SDS011;914;48.118;11.600;2023-08-30T04:39:36;3.80;;;3.50;;
1829;SDS011;914;48.118;11.600;2023-08-30T04:42:02;4.23;;;3.70;;
1829;SDS011;914;48.118;11.600;2023-08-30T04:44:28;4.63;;;4.10;;
1829;SDS011;914;48.118;11.600;2023-08-30T04:46:54;4.13;;;3.73;;
1829;SDS011;914;48.118;11.600;2023-08-30T04:49:20;5.23;;;4.43;;
1829;SDS011;914;48.118;11.600;2023-08-30T04:51:46;3.77;;;3.47;;
1829;SDS011;914;48.118;11.600;2023-08-30T04:54:12;4.03;;;3.63;;
1829;SDS011;914;48.118;11.600;2023-08-30T04:56:39;5.80;;;3.90;;
1829;SDS011;914;48.118;11.600;2023-08-30T04:59:04;4.70;;;3.90;;
1829;SDS011;914;48.118;11.600;2023-08-30T05:01:30;4.63;;;4.10;;
1829;SDS011;914;48.118;11.600;2023-08-30T05:03:56;4.50;;;3.97;;
1829;SDS011;914;48.118;11.600;2023-08-30T05:06:22;5.73;;;4.13;;
1829;SDS011;914;48.118;11.600;2023-08-30T05:08:47;4.50;;;4.10;;
1829;SDS011;914;48.118;11.600;2023-08-30T05:11:13;5.53;;;3.67;;
1829;SDS011;914;48.118;11.600;2023-08-30T05:13:39;4.67;;;4.00;;
1829;SDS011;914;48.118;11.600;2023-08-30T05:16:04;4.10;;;3.70;;
1829;SDS011;914;48.118;11.600;2023-08-30T05:18:30;4.20;;;3.80;;
1829;SDS011;914;48.118;11.600;2023-08-30T05:20:56;3.93;;;3.63;;
1829;SDS011;914;48.118;11.600;2023-08-30T05:23:21;5.57;;;4.57;;
1829;SDS011;914;48.118;11.600;2023-08-30T05:25:47;10.77;;;4.20;;
1829;SDS011;914;48.118;11.600;2023-08-30T05:28:13;3.97;;;3.57;;
1829;SDS011;914;48.118;11.600;2023-08-30T05:30:41;4.60;;;4.20;;
1829;SDS011;914;48.118;11.600;2023-08-30T05:33:08;4.67;;;4.23;;
1829;SDS011;914;48.118;11.600;2023-08-30T05:35:34;8.40;;;4.60;;
1829;SDS011;914;48.118;11.600;2023-08-30T05:37:59;4.40;;;3.60;;
1829;SDS011;914;48.118;11.600;2023-08-30T05:40:25;4.27;;;3.87;;
1829;SDS011;914;48.118;11.600;2023-08-30T05:42:50;5.43;;;4.50;;
1829;SDS011;914;48.118;11.600;2023-08-30T05:45:16;5.50;;;4.17;;
1829;SDS011;914;48.118;11.600;2023-08-30T05:47:42;4.60;;;4.20;;
1829;SDS011;914;48.118;11.600;2023-08-30T05:50:07;4.60;;;4.20;;
1829;SDS011;914;48.118;11.600;2023-08-30T05:52:34;5.20;;;4.07;;
1829;SDS011;914;48.118;11.600;2023-08-30T05:55:00;6.27;;;4.63;;
1829;SDS011;914;48.118;11.600;2023-08-30T05:57:26;5.60;;;4.63;;
1829;SDS011;914;48.118;11.600;2023-08-30T05:59:54;5.13;;;4.17;;
1829;SDS011;914;48.118;11.600;2023-08-30T06:02:19;5.07;;;3.90;;
1829;SDS011;914;48.118;11.600;2023-08-30T06:04:45;4.50;;;3.83;;
1829;SDS011;914;48.118;11.600;2023-08-30T06:07:10;4.37;;;3.70;;
1829;SDS011;914;48.118;11.600;2023-08-30T06:09:37;6.43;;;4.07;;
1829;SDS011;914;48.118;11.600;2023-08-30T06:12:02;4.47;;;4.00;;
1829;SDS011;914;48.118;11.600;2023-08-30T06:14:28;3.70;;;3.40;;
1829;SDS011;914;48.118;11.600;2023-08-30T06:16:54;4.47;;;4.07;;
1829;SDS011;914;48.118;11.600;2023-08-30T06:19:20;5.77;;;3.83;;
1829;SDS011;914;48.118;11.600;2023-08-30T06:21:45;4.20;;;3.60;;
1829;SDS011;914;48.118;11.600;2023-08-30T06:24:11;5.47;;;3.70;;
1829;SDS011;914;48.118;11.600;2023-08-30T06:26:37;4.10;;;3.70;;
1829;SDS011;914;48.118;11.600;2023-08-30T06:29:02;4.50;;;4.10;;
1829;SDS011;914;48.118;11.600;2023-08-30T06:31:28;4.33;;;3.93;;
1829;SDS011;914;48.118;11.600;2023-08-30T06:33:54;4.70;;;3.73;;
1829;SDS011;914;48.118;11.600;2023-08-30T06:36:19;3.90;;;3.53;;
1829;SDS011;914;48.118;11.600;2023-08-30T06:38:47;4.83;;;4.33;;
1829;SDS011;914;48.118;11.600;2023-08-30T06:41:13;4.30;;;3.90;;
1829;SDS011;914;48.118;11.600;2023-08-30T06:43:39;4.13;;;3.80;;
1829;SDS011;914;48.118;11.600;2023-08-30T06:46:04;4.23;;;3.83;;
1829;SDS011;914;48.118;11.600;2023-08-30T06:48:30;4.50;;;4.10;;
1829;SDS011;914;48.118;11.600;2023-08-30T06:50:59;5.33;;;4.20;;
1829;SDS011;914;48.118;11.600;2023-08-30T06:53:25;4.67;;;4.17;;
1829;SDS011;914;48.118;11.600;2023-08-30T06:55:58;5.60;;;3.97;;
1829;SDS011;914;48.118;11.600;2023-08-30T06:58:24;6.03;;;4.30;;
1829;SDS011;914;48.118;11.600;2023-08-30T07:00:50;6.47;;;4.50;;
1829;SDS011;914;48.118;11.600;2023-08-30T07:03:16;4.20;;;3.80;;
1829;SDS011;914;48.118;11.600;2023-08-30T07:05:42;4.60;;;4.20;;
1829;SDS011;914;48.118;11.600;2023-08-30T07:08:08;4.80;;;4.30;;
1829;SDS011;914;48.118;11.600;2023-08-30T07:10:34;4.67;;;4.27;;
1829;SDS011;914;48.118;11.600;2023-08-30T07:13:00;7.43;;;4.27;;
1829;SDS011;914;48.118;11.600;2023-08-30T07:15:26;4.63;;;4.23;;
1829;SDS011;914;48.118;11.600;2023-08-30T07:17:52;4.93;;;4.43;;
1829;SDS011;914;48.118;11.600;2023-08-30T07:20:18;4.03;;;3.57;;
1829;SDS011;914;48.118;11.600;2023-08-30T07:22:43;5.47;;;4.03;;
1829;SDS011;914;48.118;11.600;2023-08-30T07:25:09;4.70;;;4.30;;
1829;SDS011;914;48.118;11.600;2023-08-30T07:27:35;4.60;;;4.20;;
1829;SDS011;914;48.118;11.600;2023-08-30T07:30:01;4.97;;;4.47;;
1829;SDS011;914;48.118;11.600;2023-08-30T07:32:29;4.67;;;4.30;;
1829;SDS011;914;48.118;11.600;2023-08-30T07:34:55;4.80;;;4.40;;
1829;SDS011;914;48.118;11.600;2023-08-30T07:37:20;4.60;;;4.20;;
1829;SDS011;914;48.118;11.600;2023-08-30T07:39:47;6.33;;;4.17;;
1829;SDS011;914;48.118;11.600;2023-08-30T07:42:13;4.33;;;3.93;;
1829;SDS011;914;48.118;11.600;2023-08-30T07:44:40;4.70;;;4.30;;
1829;SDS011;914;48.118;11.600;2023-08-30T07:47:05;4.93;;;4.40;;
1829;SDS011;914;48.118;11.600;2023-08-30T07:49:31;5.90;;;3.90;;
1829;SDS011;914;48.118;11.600;2023-08-30T07:51:56;4.47;;;4.03;;
1829;SDS011;914;48.118;11.600;2023-08-30T07:54:22;4.60;;;4.20;;
1829;SDS011;914;48.118;11.600;2023-08-30T07:56:48;4.50;;;4.10;;
1829;SDS011;914;48.118;11.600;2023-08-30T07:59:13;4.23;;;3.83;;
1829;SDS011;914;48.118;11.600;2023-08-30T08:01:39;4.83;;;4.43;;
1829;SDS011;914;48.118;11.600;2023-08-30T08:04:04;4.43;;;4.03;;
1829;SDS011;914;48.118;11.600;2023-08-30T08:06:30;4.70;;;4.30;;
1829;SDS011;914;48.118;11.600;2023-08-30T08:08:56;5.23;;;4.50;;
1829;SDS011;914;48.118;11.600;2023-08-30T08:11:21;4.40;;;4.00;;
1829;SDS011;914;48.118;11.600;2023-08-30T08:13:47;4.73;;;3.90;;
1829;SDS011;914;48.118;11.600;2023-08-30T08:16:12;4.80;;;4.40;;
1829;SDS011;914;48.118;11.600;2023-08-30T08:18:38;4.97;;;4.47;;
1829;SDS011;914;48.118;11.600;2023-08-30T08:21:04;4.27;;;3.87;;
1829;SDS011;914;48.118;11.600;2023-08-30T08:23:29;4.93;;;4.47;;
1829;SDS011;914;48.118;11.600;2023-08-30T08:25:58;4.53;;;4.13;;
1829;SDS011;914;48.118;11.600;2023-08-30T08:28:24;4.97;;;4.53;;
1829;SDS011;914;48.118;11.600;2023-08-30T08:30:50;5.47;;;4.17;;
1829;SDS011;914;48.118;11.600;2023-08-30T08:33:19;4.50;;;4.10;;
1829;SDS011;914;48.118;11.600;2023-08-30T08:35:48;4.43;;;4.03;;
1829;SDS011;914;48.118;11.600;2023-08-30T08:38:14;4.03;;;3.73;;
1829;SDS011;914;48.118;11.600;2023-08-30T08:40:40;6.33;;;4.80;;
1829;SDS011;914;48.118;11.600;2023-08-30T08:43:06;4.87;;;4.37;;
1829;SDS011;914;48.118;11.600;2023-08-30T08:45:36;4.33;;;3.93;;
1829;SDS011;914;48.118;11.600;2023-08-30T08:48:04;4.57;;;4.07;;
1829;SDS011;914;48.118;11.600;2023-08-30T08:50:32;4.13;;;3.73;;
1829;SDS011;914;48.118;11.600;2023-08-30T08:52:58;4.37;;;3.97;;
1829;SDS011;914;48.118;11.600;2023-08-30T08:55:26;4.27;;;3.87;;
1829;SDS011;914;48.118;11.600;2023-08-30T08:57:55;4.00;;;3.70;;
1829;SDS011;914;48.118;11.600;2023-08-30T09:00:22;4.07;;;3.77;;
1829;SDS011;914;48.118;11.600;2023-08-30T09:02:48;3.73;;;3.33;;
1829;SDS011;914;48.118;11.600;2023-08-30T09:05:17;4.03;;;3.70;;
1829;SDS011;914;48.118;11.600;2023-08-30T09:07:44;3.73;;;3.43;;
1829;SDS011;914;48.118;11.600;2023-08-30T09:10:10;3.47;;;3.17;;
1829;SDS011;914;48.118;11.600;2023-08-30T09:12:36;3.07;;;2.80;;
1829;SDS011;914;48.118;11.600;2023-08-30T09:15:01;3.90;;;3.60;;
1829;SDS011;914;48.118;11.600;2023-08-30T09:17:38;3.60;;;3.30;;
1829;SDS011;914;48.118;11.600;2023-08-30T09:20:08;3.50;;;3.20;;
1829;SDS011;914;48.118;11.600;2023-08-30T09:22:38;3.80;;;3.40;;
1829;SDS011;914;48.118;11.600;2023-08-30T09:25:06;3.13;;;2.90;;
1829;SDS011;914;48.118;11.600;2023-08-30T09:27:35;2.60;;;2.30;;
1829;SDS011;914;48.118;11.600;2023-08-30T09:30:06;4.60;;;3.17;;
1829;SDS011;914;48.118;11.600;2023-08-30T09:32:40;3.20;;;2.97;;
1829;SDS011;914;48.118;11.600;2023-08-30T09:35:07;2.47;;;2.27;;
1829;SDS011;914;48.118;11.600;2023-08-30T09:37:33;2.23;;;1.83;;
1829;SDS011;914;48.118;11.600;2023-08-30T09:39:59;2.10;;;2.00;;
1829;SDS011;914;48.118;11.600;2023-08-30T09:42:25;1.90;;;1.80;;
1829;SDS011;914;48.118;11.600;2023-08-30T09:44:51;2.93;;;2.73;;
1829;SDS011;914;48.118;11.600;2023-08-30T09:47:16;2.57;;;2.30;;
1829;SDS011;914;48.118;11.600;2023-08-30T09:49:45;2.10;;;1.90;;
1829;SDS011;914;48.118;11.600;2023-08-30T09:52:14;1.60;;;1.53;;
1829;SDS011;914;48.118;11.600;2023-08-30T09:54:41;2.00;;;1.90;;
1829;SDS011;914;48.118;11.600;2023-08-30T09:57:09;1.90;;;1.73;;
1829;SDS011;914;48.118;11.600;2023-08-30T09:59:35;1.70;;;1.60;;
1829;SDS011;914;48.118;11.600;2023-08-30T10:02:03;5.00;;;1.73;;
1829;SDS011;914;48.118;11.600;2023-08-30T10:04:31;1.60;;;1.48;;
1829;SDS011;914;48.118;11.600;2023-08-30T10:06:58;2.83;;;1.90;;
1829;SDS011;914;48.118;11.600;2023-08-30T10:09:24;1.70;;;1.60;;
1829;SDS011;914;48.118;11.600;2023-08-30T10:11:50;1.70;;;1.60;;
1829;SDS011;914;48.118;11.600;2023-08-30T10:14:16;1.50;;;1.40;;
1829;SDS011;914;48.118;11.600;2023-08-30T10:16:43;3.97;;;1.90;;
1829;SDS011;914;48.118;11.600;2023-08-30T10:19:16;1.67;;;1.58;;
1829;SDS011;914;48.118;11.600;2023-08-30T10:21:48;1.55;;;1.50;;
1829;SDS011;914;48.118;11.600;2023-08-30T10:24:29;1.57;;;1.20;;
1829;SDS011;914;48.118;11.600;2023-08-30T10:27:03;1.33;;;1.20;;
1829;SDS011;914;48.118;11.600;2023-08-30T10:29:31;1.33;;;1.23;;
1829;SDS011;914;48.118;11.600;2023-08-30T10:32:06;1.13;;;1.13;;
1829;SDS011;914;48.118;11.600;2023-08-30T10:34:32;3.95;;;1.40;;
1829;SDS011;914;48.118;11.600;2023-08-30T10:36:59;1.15;;;1.15;;
1829;SDS011;914;48.118;11.600;2023-08-30T10:39:35;2.50;;;1.05;;
1829;SDS011;914;48.118;11.600;2023-08-30T10:42:10;1.27;;;1.17;;
1829;SDS011;914;48.118;11.600;2023-08-30T10:44:47;1.13;;;1.13;;
1829;SDS011;914;48.118;11.600;2023-08-30T10:47:20;1.20;;;1.20;;
1829;SDS011;914;48.118;11.600;2023-08-30T10:49:48;1.23;;;1.10;;
1829;SDS011;914;48.118;11.600;2023-08-30T10:52:14;1.33;;;1.23;;
1829;SDS011;914;48.118;11.600;2023-08-30T10:54:40;1.10;;;1.05;;
1829;SDS011;914;48.118;11.600;2023-08-30T10:57:08;1.00;;;1.00;;
1829;SDS011;914;48.118;11.600;2023-08-30T10:59:38;1.00;;;1.00;;
1829;SDS011;914;48.118;11.600;2023-08-30T11:02:05;1.25;;;1.23;;
1829;SDS011;914;48.118;11.600;2023-08-30T11:04:31;1.17;;;1.10;;
1829;SDS011;914;48.118;11.600;2023-08-30T11:06:57;1.17;;;1.07;;
1829;SDS011;914;48.118;11.600;2023-08-30T11:09:23;1.00;;;1.00;;
1829;SDS011;914;48.118;11.600;2023-08-30T11:11:50;0.95;;;0.95;;
1829;SDS011;914;48.118;11.600;2023-08-30T11:14:16;1.20;;;1.20;;
1829;SDS011;914;48.118;11.600;2023-08-30T11:16:43;1.10;;;1.00;;
1829;SDS011;914;48.118;11.600;2023-08-30T11:19:10;1.10;;;1.10;;
1829;SDS011;914;48.118;11.600;2023-08-30T11:21:42;1.20;;;1.20;;
1829;SDS011;914;48.118;11.600;2023-08-30T11:24:10;1.63;;;1.33;;
1829;SDS011;914;48.118;11.600;2023-08-30T11:26:37;1.10;;;1.00;;
1829;SDS011;914;48.118;11.600;2023-08-30T11:29:06;1.23;;;1.10;;
1829;SDS011;914;48.118;11.600;2023-08-30T11:31:33;3.08;;;1.23;;
1829;SDS011;914;48.118;11.600;2023-08-30T11:33:59;1.10;;;1.10;;
1829;SDS011;914;48.118;11.600;2023-08-30T11:36:26;1.20;;;1.15;;
1829;SDS011;914;48.118;11.600;2023-08-30T11:38:53;1.10;;;1.10;;
1829;SDS011;914;48.118;11.600;2023-08-30T11:41:22;1.33;;;1.23;;
1829;SDS011;914;48.118;11.600;2023-08-30T11:43:48;1.00;;;1.00;;
1829;SDS011;914;48.118;11.600;2023-08-30T11:46:15;1.10;;;1.10;;
1829;SDS011;914;48.118;11.600;2023-08-30T11:48:42;1.10;;;1.10;;
1829;SDS011;914;48.118;11.600;2023-08-30T11:51:08;1.48;;;1.00;;
1829;SDS011;914;48.118;11.600;2023-08-30T11:53:34;1.00;;;1.00;;
1829;SDS011;914;48.118;11.600;2023-08-30T11:56:00;1.33;;;1.23;;
1829;SDS011;914;48.118;11.600;2023-08-30T11:58:26;2.55;;;1.15;;
1829;SDS011;914;48.118;11.600;2023-08-30T12:00:52;1.92;;;1.00;;
1829;SDS011;914;48.118;11.600;2023-08-30T12:03:22;1.30;;;1.20;;
1829;SDS011;914;48.118;11.600;2023-08-30T12:05:48;1.52;;;1.42;;
1829;SDS011;914;48.118;11.600;2023-08-30T12:08:18;1.10;;;1.10;;
1829;SDS011;914;48.118;11.600;2023-08-30T12:10:45;0.90;;;0.90;;
1829;SDS011;914;48.118;11.600;2023-08-30T12:13:27;1.80;;;1.00;;
1829;SDS011;914;48.118;11.600;2023-08-30T12:15:55;1.20;;;1.10;;
1829;SDS011;914;48.118;11.600;2023-08-30T12:18:25;1.45;;;0.90;;
1829;SDS011;914;48.118;11.600;2023-08-30T12:20:58;0.80;;;0.80;;
1829;SDS011;914;48.118;11.600;2023-08-30T12:23:33;1.05;;;1.05;;
1829;SDS011;914;48.118;11.600;2023-08-30T12:26:06;1.00;;;1.00;;
1829;SDS011;914;48.118;11.600;2023-08-30T12:28:42;0.80;;;0.80;;
1829;SDS011;914;48.118;11.600;2023-08-30T12:31:09;1.58;;;0.90;;
1829;SDS011;914;48.118;11.600;2023-08-30T12:33:36;0.95;;;0.90;;
1829;SDS011;914;48.118;11.600;2023-08-30T12:36:02;0.93;;;0.82;;
1829;SDS011;914;48.118;11.600;2023-08-30T12:38:29;1.15;;;0.90;;
1829;SDS011;914;48.118;11.600;2023-08-30T12:40:55;0.93;;;0.93;;
1829;SDS011;914;48.118;11.600;2023-08-30T12:43:21;2.83;;;1.00;;
1829;SDS011;914;48.118;11.600;2023-08-30T12:45:48;1.05;;;1.05;;
1829;SDS011;914;48.118;11.600;2023-08-30T12:48:15;1.02;;;1.02;;
1829;SDS011;914;48.118;11.600;2023-08-30T12:50:43;0.88;;;0.88;;
1829;SDS011;914;48.118;11.600;2023-08-30T12:53:09;1.20;;;1.00;;
1829;SDS011;914;48.118;11.600;2023-08-30T12:55:35;1.20;;;1.10;;
1829;SDS011;914;48.118;11.600;2023-08-30T12:58:01;0.90;;;0.90;;
1829;SDS011;914;48.118;11.600;2023-08-30T13:00:27;1.85;;;0.88;;
1829;SDS011;914;48.118;11.600;2023-08-30T13:02:53;1.35;;;1.13;;
1829;SDS011;914;48.118;11.600;2023-08-30T13:05:19;1.63;;;1.13;;
1829;SDS011;914;48.118;11.600;2023-08-30T13:07:46;1.02;;;0.93;;
1829;SDS011;914;48.118;11.600;2023-08-30T13:10:12;0.73;;;0.73;;
1829;SDS011;914;48.118;11.600;2023-08-30T13:12:38;1.10;;;1.00;;
1829;SDS011;914;48.118;11.600;2023-08-30T13:15:04;0.90;;;0.90;;
1829;SDS011;914;48.118;11.600;2023-08-30T13:17:30;1.27;;;1.00;;
1829;SDS011;914;48.118;11.600;2023-08-30T13:19:56;0.85;;;0.85;;
1829;SDS011;914;48.118;11.600;2023-08-30T13:22:24;0.80;;;0.80;;
1829;SDS011;914;48.118;11.600;2023-08-30T13:24:51;1.00;;;1.00;;
1829;SDS011;914;48.118;11.600;2023-08-30T13:27:17;1.58;;;1.00;;
1829;SDS011;914;48.118;11.600;2023-08-30T13:29:43;2.28;;;1.00;;
1829;SDS011;914;48.118;11.600;2023-08-30T13:32:09;0.90;;;0.90;;
1829;SDS011;914;48.118;11.600;2023-08-30T13:34:34;0.98;;;0.88;;
1829;SDS011;914;48.118;11.600;2023-08-30T13:37:00;1.02;;;0.90;;
1829;SDS011;914;48.118;11.600;2023-08-30T13:39:26;0.90;;;0.90;;
1829;SDS011;914;48.118;11.600;2023-08-30T13:41:51;0.88;;;0.88;;
1829;SDS011;914;48.118;11.600;2023-08-30T13:44:17;0.80;;;0.80;;
1829;SDS011;914;48.118;11.600;2023-08-30T13:46:43;1.67;;;1.00;;
1829;SDS011;914;48.118;11.600;2023-08-30T13:49:09;1.00;;;0.90;;
1829;SDS011;914;48.118;11.600;2023-08-30T13:51:35;0.90;;;0.90;;
1829;SDS011;914;48.118;11.600;2023-08-30T13:54:02;1.50;;;1.40;;
1829;SDS011;914;48.118;11.600;2023-08-30T13:56:27;1.70;;;1.60;;
1829;SDS011;914;48.118;11.600;2023-08-30T13:58:55;2.90;;;1.50;;
1829;SDS011;914;48.118;11.600;2023-08-30T14:01:21;1.92;;;1.73;;
1829;SDS011;914;48.118;11.600;2023-08-30T14:03:47;1.47;;;1.47;;
1829;SDS011;914;48.118;11.600;2023-08-30T14:06:12;1.90;;;1.80;;
1829;SDS011;914;48.118;11.600;2023-08-30T14:08:38;1.90;;;1.80;;
1829;SDS011;914;48.118;11.600;2023-08-30T14:11:04;2.63;;;1.88;;
1829;SDS011;914;48.118;11.600;2023-08-30T14:13:29;1.80;;;1.70;;
1829;SDS011;914;48.118;11.600;2023-08-30T14:16:01;1.60;;;1.50;;
1829;SDS011;914;48.118;11.600;2023-08-30T14:18:30;2.77;;;1.70;;
1829;SDS011;914;48.118;11.600;2023-08-30T14:20:56;2.60;;;1.60;;
1829;SDS011;914;48.118;11.600;2023-08-30T14:23:25;1.90;;;1.70;;
1829;SDS011;914;48.118;11.600;2023-08-30T14:25:56;1.67;;;1.57;;
1829;SDS011;914;48.118;11.600;2023-08-30T14:28:25;1.63;;;1.53;;
1829;SDS011;914;48.118;11.600;2023-08-30T14:30:52;1.70;;;1.60;;
1829;SDS011;914;48.118;11.600;2023-08-30T14:33:18;1.80;;;1.70;;
1829;SDS011;914;48.118;11.600;2023-08-30T14:35:44;1.93;;;1.83;;
1829;SDS011;914;48.118;11.600;2023-08-30T14:38:09;2.10;;;2.00;;
1829;SDS011;914;48.118;11.600;2023-08-30T14:40:35;2.50;;;2.30;;
1829;SDS011;914;48.118;11.600;2023-08-30T14:43:02;2.00;;;1.90;;
1829;SDS011;914;48.118;11.600;2023-08-30T14:45:28;2.40;;;2.27;;
1829;SDS011;914;48.118;11.600;2023-08-30T14:47:54;1.83;;;1.73;;
1829;SDS011;914;48.118;11.600;2023-08-30T14:50:20;2.43;;;2.00;;
1829;SDS011;914;48.118;11.600;2023-08-30T14:52:45;2.20;;;2.03;;
1829;SDS011;914;48.118;11.600;2023-08-30T14:55:11;2.35;;;2.20;;
1829;SDS011;914;48.118;11.600;2023-08-30T14:57:37;2.08;;;1.92;;
1829;SDS011;914;48.118;11.600;2023-08-30T15:00:03;3.47;;;2.00;;
1829;SDS011;914;48.118;11.600;2023-08-30T15:02:30;2.50;;;2.03;;
1829;SDS011;914;48.118;11.600;2023-08-30T15:04:56;2.10;;;2.00;;
1829;SDS011;914;48.118;11.600;2023-08-30T15:07:22;1.88;;;1.77;;
1829;SDS011;914;48.118;11.600;2023-08-30T15:09:48;2.05;;;1.85;;
1829;SDS011;914;48.118;11.600;2023-08-30T15:12:14;1.80;;;1.70;;
1829;SDS011;914;48.118;11.600;2023-08-30T15:14:40;2.10;;;2.00;;
1829;SDS011;914;48.118;11.600;2023-08-30T15:17:07;2.08;;;1.98;;
1829;SDS011;914;48.118;11.600;2023-08-30T15:19:32;4.47;;;1.90;;
1829;SDS011;914;48.118;11.600;2023-08-30T15:21:58;2.08;;;1.98;;